Jack Holland — WDF3615 — position and weather

sailwx.info

Track history (hours):
 
Tides and Currents Weather Stations Pressure Air Temp Water Temp Dewpoint Dewpoint Depression Visibility Wind Speed Wind Dir Waves Ship Positions

Jack Holland

Owner: Norfolk Tug Company, Norfolk, VA. More information available from US FCC via Universal Licensing System and Coast Guard Vessel Documentation Center.

Last reported at 2015-Aug-30 04:29 UTC. Time now 2015-Sep-01 03:59 UTC.
Position N 37°27' W 076°10'.

Length 22 m; draft 2.5 m.

Type: Tug. MMSI: 367442020.

Date/timePositionNaut miles runAvg speedWind from/ knotsBaromVisibWave heightAir tempDewpointWater temp
2015-Aug-30 04:29N 37°27' W 076°10'  
2015-Aug-23 01:05N 37°58' W 076°13'3 5.0
2015-Aug-23 00:32N 38°01' W 076°15'6 5.0
2015-Aug-22 23:22N 38°06' W 076°16'49 5.5
2015-Aug-22 14:31N 38°55' W 076°25'5 5.5
2015-Aug-22 13:34N 38°60' W 076°23'5 5.4
2015-Aug-22 12:34N 39°05' W 076°24'5 5.5
2015-Aug-22 11:34N 39°10' W 076°26'4 4.4
2015-Aug-22 10:32N 39°13' W 076°30'0 0.1
2015-Aug-22 07:07N 39°13' W 076°30'0 0.0
2015-Aug-22 03:27N 39°13' W 076°30'0 0.0
2015-Aug-22 02:09N 39°13' W 076°30'0 0.0
2015-Aug-21 08:27N 39°13' W 076°30'0 0.0
2015-Aug-21 07:32N 39°13' W 076°30'0 0.0
2015-Aug-21 05:29N 39°13' W 076°30'0 0.0
2015-Aug-21 04:25N 39°13' W 076°30'0 0.0
2015-Aug-21 02:32N 39°13' W 076°30'0 0.0
2015-Aug-21 01:34N 39°13' W 076°30'0 0.0
2015-Aug-21 00:33N 39°13' W 076°30'0 0.0
2015-Aug-20 23:22N 39°13' W 076°30'0 0.0
2015-Aug-20 22:33N 39°13' W 076°30'0 0.0
2015-Aug-20 21:13N 39°13' W 076°30'0 0.0
2015-Aug-20 20:19N 39°13' W 076°30'0 0.0
2015-Aug-20 18:31N 39°13' W 076°30'0 0.0
2015-Aug-20 17:33N 39°13' W 076°30'0 0.0
2015-Aug-20 16:10N 39°13' W 076°30'0 0.0
2015-Aug-20 14:24N 39°13' W 076°30'0 0.0
2015-Aug-20 13:09N 39°13' W 076°30'  
Track history (hours):
 
Tides and Currents Weather Stations Pressure Air Temp Water Temp Dewpoint Dewpoint Depression Visibility Wind Speed Wind Dir Waves Ship Positions

Jack Holland

Owner: Norfolk Tug Company, Norfolk, VA. More information available from US FCC via Universal Licensing System and Coast Guard Vessel Documentation Center.

Last reported at 2015-Aug-30 04:29 UTC. Time now 2015-Sep-01 03:59 UTC.
Position N 37°27' W 076°10'.

Length 22 m; draft 2.5 m.

Type: Tug. MMSI: 367442020.

Date/timePositionNaut miles runAvg speedWind from/ knotsBaromVisibWave heightAir tempDewpointWater temp
2015-Aug-30 04:29N 37°27' W 076°10'  
2015-Aug-23 01:05N 37°58' W 076°13'3 5.0
2015-Aug-23 00:32N 38°01' W 076°15'6 5.0
2015-Aug-22 23:22N 38°06' W 076°16'49 5.5
2015-Aug-22 14:31N 38°55' W 076°25'5 5.5
2015-Aug-22 13:34N 38°60' W 076°23'5 5.4
2015-Aug-22 12:34N 39°05' W 076°24'5 5.5
2015-Aug-22 11:34N 39°10' W 076°26'4 4.4
2015-Aug-22 10:32N 39°13' W 076°30'0 0.1
2015-Aug-22 07:07N 39°13' W 076°30'0 0.0
2015-Aug-22 03:27N 39°13' W 076°30'0 0.0
2015-Aug-22 02:09N 39°13' W 076°30'0 0.0
2015-Aug-21 08:27N 39°13' W 076°30'0 0.0
2015-Aug-21 07:32N 39°13' W 076°30'0 0.0
2015-Aug-21 05:29N 39°13' W 076°30'0 0.0
2015-Aug-21 04:25N 39°13' W 076°30'0 0.0
2015-Aug-21 02:32N 39°13' W 076°30'0 0.0
2015-Aug-21 01:34N 39°13' W 076°30'0 0.0
2015-Aug-21 00:33N 39°13' W 076°30'0 0.0
2015-Aug-20 23:22N 39°13' W 076°30'0 0.0
2015-Aug-20 22:33N 39°13' W 076°30'0 0.0
2015-Aug-20 21:13N 39°13' W 076°30'0 0.0
2015-Aug-20 20:19N 39°13' W 076°30'0 0.0
2015-Aug-20 18:31N 39°13' W 076°30'0 0.0
2015-Aug-20 17:33N 39°13' W 076°30'0 0.0
2015-Aug-20 16:10N 39°13' W 076°30'0 0.0
2015-Aug-20 14:24N 39°13' W 076°30'0 0.0
2015-Aug-20 13:09N 39°13' W 076°30'  

Dump ship's entire track history